sensor_id;sensor_type;location;lat;lon;timestamp;P1;durP1;ratioP1;P2;durP2;ratioP2
72761;SDS011;60886;55.034;73.150;2022-12-18T00:00:27;10.10;;;3.28;;
72761;SDS011;60886;55.034;73.150;2022-12-18T00:02:55;12.23;;;3.92;;
72761;SDS011;60886;55.034;73.150;2022-12-18T00:05:27;13.52;;;4.10;;
72761;SDS011;60886;55.034;73.150;2022-12-18T00:08:05;13.38;;;3.50;;
72761;SDS011;60886;55.034;73.150;2022-12-18T00:10:37;9.97;;;3.90;;
72761;SDS011;60886;55.034;73.150;2022-12-18T00:13:06;17.35;;;4.50;;
72761;SDS011;60886;55.034;73.150;2022-12-18T00:15:38;18.75;;;4.72;;
72761;SDS011;60886;55.034;73.150;2022-12-18T00:18:05;9.57;;;3.60;;
72761;SDS011;60886;55.034;73.150;2022-12-18T00:20:35;19.92;;;5.13;;
72761;SDS011;60886;55.034;73.150;2022-12-18T00:23:02;13.20;;;4.43;;
72761;SDS011;60886;55.034;73.150;2022-12-18T00:25:32;12.95;;;4.40;;
72761;SDS011;60886;55.034;73.150;2022-12-18T00:28:04;15.57;;;5.32;;
72761;SDS011;60886;55.034;73.150;2022-12-18T00:30:30;15.95;;;4.13;;
72761;SDS011;60886;55.034;73.150;2022-12-18T00:33:07;13.32;;;5.57;;
72761;SDS011;60886;55.034;73.150;2022-12-18T00:35:38;12.10;;;4.50;;
72761;SDS011;60886;55.034;73.150;2022-12-18T00:38:05;12.93;;;3.95;;
72761;SDS011;60886;55.034;73.150;2022-12-18T00:40:32;13.93;;;4.35;;
72761;SDS011;60886;55.034;73.150;2022-12-18T00:42:58;13.85;;;4.65;;
72761;SDS011;60886;55.034;73.150;2022-12-18T00:45:29;11.27;;;3.78;;
72761;SDS011;60886;55.034;73.150;2022-12-18T00:47:56;14.57;;;4.67;;
72761;SDS011;60886;55.034;73.150;2022-12-18T00:50:32;13.15;;;4.22;;
72761;SDS011;60886;55.034;73.150;2022-12-18T00:53:09;14.43;;;5.55;;
72761;SDS011;60886;55.034;73.150;2022-12-18T00:55:39;14.38;;;4.97;;
72761;SDS011;60886;55.034;73.150;2022-12-18T00:58:06;8.65;;;3.03;;
72761;SDS011;60886;55.034;73.150;2022-12-18T01:00:34;17.03;;;4.43;;
72761;SDS011;60886;55.034;73.150;2022-12-18T01:03:01;12.45;;;3.75;;
72761;SDS011;60886;55.034;73.150;2022-12-18T01:05:39;15.38;;;3.65;;
72761;SDS011;60886;55.034;73.150;2022-12-18T01:08:06;15.80;;;4.35;;
72761;SDS011;60886;55.034;73.150;2022-12-18T01:10:32;12.82;;;4.38;;
72761;SDS011;60886;55.034;73.150;2022-12-18T01:12:59;16.13;;;3.70;;
72761;SDS011;60886;55.034;73.150;2022-12-18T01:15:26;17.58;;;4.57;;
72761;SDS011;60886;55.034;73.150;2022-12-18T01:17:53;13.07;;;4.88;;
72761;SDS011;60886;55.034;73.150;2022-12-18T01:20:28;8.68;;;3.90;;
72761;SDS011;60886;55.034;73.150;2022-12-18T01:22:55;10.80;;;4.32;;
72761;SDS011;60886;55.034;73.150;2022-12-18T01:25:32;13.10;;;3.60;;
72761;SDS011;60886;55.034;73.150;2022-12-18T01:27:59;10.88;;;3.85;;
72761;SDS011;60886;55.034;73.150;2022-12-18T01:30:36;14.80;;;3.85;;
72761;SDS011;60886;55.034;73.150;2022-12-18T01:33:13;13.35;;;4.03;;
72761;SDS011;60886;55.034;73.150;2022-12-18T01:35:41;14.82;;;3.83;;
72761;SDS011;60886;55.034;73.150;2022-12-18T01:38:08;11.93;;;3.00;;
72761;SDS011;60886;55.034;73.150;2022-12-18T01:40:34;10.07;;;3.42;;
72761;SDS011;60886;55.034;73.150;2022-12-18T01:43:01;19.05;;;3.67;;
72761;SDS011;60886;55.034;73.150;2022-12-18T01:45:38;14.10;;;3.17;;
72761;SDS011;60886;55.034;73.150;2022-12-18T01:48:10;12.07;;;3.78;;
72761;SDS011;60886;55.034;73.150;2022-12-18T01:50:40;11.03;;;3.10;;
72761;SDS011;60886;55.034;73.150;2022-12-18T01:53:14;14.88;;;3.75;;
72761;SDS011;60886;55.034;73.150;2022-12-18T01:55:49;15.32;;;4.63;;
72761;SDS011;60886;55.034;73.150;2022-12-18T01:58:20;9.45;;;3.13;;
72761;SDS011;60886;55.034;73.150;2022-12-18T02:00:54;9.55;;;3.65;;
72761;SDS011;60886;55.034;73.150;2022-12-18T02:03:21;11.93;;;4.53;;
72761;SDS011;60886;55.034;73.150;2022-12-18T02:14:12;13.70;;;3.45;;
72761;SDS011;60886;55.034;73.150;2022-12-18T02:23:04;13.07;;;3.70;;
72761;SDS011;60886;55.034;73.150;2022-12-18T02:28:46;13.98;;;3.90;;
72761;SDS011;60886;55.034;73.150;2022-12-18T02:31:26;8.53;;;3.37;;
72761;SDS011;60886;55.034;73.150;2022-12-18T02:34:00;9.93;;;4.00;;
72761;SDS011;60886;55.034;73.150;2022-12-18T02:36:35;14.52;;;4.90;;
72761;SDS011;60886;55.034;73.150;2022-12-18T02:39:07;12.98;;;4.82;;
72761;SDS011;60886;55.034;73.150;2022-12-18T02:41:43;16.50;;;5.55;;
72761;SDS011;60886;55.034;73.150;2022-12-18T02:44:11;15.87;;;5.30;;
72761;SDS011;60886;55.034;73.150;2022-12-18T02:46:42;18.17;;;5.13;;
72761;SDS011;60886;55.034;73.150;2022-12-18T02:49:34;10.40;;;4.28;;
72761;SDS011;60886;55.034;73.150;2022-12-18T02:52:17;13.40;;;4.18;;
72761;SDS011;60886;55.034;73.150;2022-12-18T02:54:56;13.55;;;5.10;;
72761;SDS011;60886;55.034;73.150;2022-12-18T03:05:44;20.02;;;5.47;;
72761;SDS011;60886;55.034;73.150;2022-12-18T03:08:23;10.75;;;4.55;;
72761;SDS011;60886;55.034;73.150;2022-12-18T03:11:00;14.20;;;4.07;;
72761;SDS011;60886;55.034;73.150;2022-12-18T03:13:41;18.65;;;4.40;;
72761;SDS011;60886;55.034;73.150;2022-12-18T03:16:14;15.27;;;4.78;;
72761;SDS011;60886;55.034;73.150;2022-12-18T03:18:53;14.45;;;5.55;;
72761;SDS011;60886;55.034;73.150;2022-12-18T03:21:37;13.35;;;4.55;;
72761;SDS011;60886;55.034;73.150;2022-12-18T03:24:20;20.20;;;3.90;;
72761;SDS011;60886;55.034;73.150;2022-12-18T03:26:50;15.75;;;4.55;;
72761;SDS011;60886;55.034;73.150;2022-12-18T03:29:24;16.25;;;4.85;;
72761;SDS011;60886;55.034;73.150;2022-12-18T03:35:26;15.73;;;4.75;;
72761;SDS011;60886;55.034;73.150;2022-12-18T03:38:03;12.23;;;4.20;;
72761;SDS011;60886;55.034;73.150;2022-12-18T03:40:40;11.55;;;4.40;;
72761;SDS011;60886;55.034;73.150;2022-12-18T03:43:10;18.42;;;4.85;;
72761;SDS011;60886;55.034;73.150;2022-12-18T03:46:03;11.05;;;4.05;;
72761;SDS011;60886;55.034;73.150;2022-12-18T03:48:46;11.27;;;4.43;;
72761;SDS011;60886;55.034;73.150;2022-12-18T03:53:51;13.27;;;4.18;;
72761;SDS011;60886;55.034;73.150;2022-12-18T03:56:45;12.50;;;3.85;;
72761;SDS011;60886;55.034;73.150;2022-12-18T03:59:15;13.15;;;4.20;;
72761;SDS011;60886;55.034;73.150;2022-12-18T04:01:52;15.15;;;4.15;;
72761;SDS011;60886;55.034;73.150;2022-12-18T04:04:23;11.17;;;4.53;;
72761;SDS011;60886;55.034;73.150;2022-12-18T04:06:51;15.05;;;5.20;;
72761;SDS011;60886;55.034;73.150;2022-12-18T04:09:19;14.40;;;4.30;;
72761;SDS011;60886;55.034;73.150;2022-12-18T04:11:47;22.50;;;5.85;;
72761;SDS011;60886;55.034;73.150;2022-12-18T04:14:15;19.90;;;5.18;;
72761;SDS011;60886;55.034;73.150;2022-12-18T04:16:42;22.00;;;7.17;;
72761;SDS011;60886;55.034;73.150;2022-12-18T04:19:12;18.88;;;6.38;;
72761;SDS011;60886;55.034;73.150;2022-12-18T04:21:47;18.60;;;4.85;;
72761;SDS011;60886;55.034;73.150;2022-12-18T04:24:14;15.70;;;4.88;;
72761;SDS011;60886;55.034;73.150;2022-12-18T04:26:48;18.90;;;5.68;;
72761;SDS011;60886;55.034;73.150;2022-12-18T04:29:17;17.53;;;6.53;;
72761;SDS011;60886;55.034;73.150;2022-12-18T04:31:54;19.20;;;5.57;;
72761;SDS011;60886;55.034;73.150;2022-12-18T04:34:25;18.83;;;8.13;;
72761;SDS011;60886;55.034;73.150;2022-12-18T04:36:53;20.35;;;7.28;;
72761;SDS011;60886;55.034;73.150;2022-12-18T04:39:25;24.63;;;7.90;;
72761;SDS011;60886;55.034;73.150;2022-12-18T04:41:55;28.60;;;8.20;;
72761;SDS011;60886;55.034;73.150;2022-12-18T04:44:21;23.60;;;7.55;;
72761;SDS011;60886;55.034;73.150;2022-12-18T04:46:49;28.55;;;9.13;;
72761;SDS011;60886;55.034;73.150;2022-12-18T04:49:21;30.05;;;10.95;;
72761;SDS011;60886;55.034;73.150;2022-12-18T04:51:49;30.33;;;10.38;;
72761;SDS011;60886;55.034;73.150;2022-12-18T04:54:17;32.87;;;9.20;;
72761;SDS011;60886;55.034;73.150;2022-12-18T04:56:47;36.55;;;12.32;;
72761;SDS011;60886;55.034;73.150;2022-12-18T04:59:13;57.20;;;20.92;;
72761;SDS011;60886;55.034;73.150;2022-12-18T05:01:41;74.75;;;27.35;;
72761;SDS011;60886;55.034;73.150;2022-12-18T05:04:08;71.47;;;23.55;;
72761;SDS011;60886;55.034;73.150;2022-12-18T05:06:34;115.73;;;36.90;;
72761;SDS011;60886;55.034;73.150;2022-12-18T05:09:01;151.15;;;46.35;;
72761;SDS011;60886;55.034;73.150;2022-12-18T05:11:27;140.07;;;46.38;;
72761;SDS011;60886;55.034;73.150;2022-12-18T05:13:56;135.88;;;42.08;;
72761;SDS011;60886;55.034;73.150;2022-12-18T05:16:23;137.30;;;42.33;;
72761;SDS011;60886;55.034;73.150;2022-12-18T05:18:49;118.53;;;41.20;;
72761;SDS011;60886;55.034;73.150;2022-12-18T05:21:16;109.65;;;35.08;;
72761;SDS011;60886;55.034;73.150;2022-12-18T05:23:43;100.80;;;36.63;;
72761;SDS011;60886;55.034;73.150;2022-12-18T05:26:09;116.43;;;37.25;;
72761;SDS011;60886;55.034;73.150;2022-12-18T05:28:53;69.47;;;27.90;;
72761;SDS011;60886;55.034;73.150;2022-12-18T05:31:28;84.60;;;29.17;;
72761;SDS011;60886;55.034;73.150;2022-12-18T05:33:54;83.47;;;29.30;;
72761;SDS011;60886;55.034;73.150;2022-12-18T05:36:20;88.65;;;29.35;;
72761;SDS011;60886;55.034;73.150;2022-12-18T05:38:49;64.60;;;20.08;;
72761;SDS011;60886;55.034;73.150;2022-12-18T05:41:21;68.22;;;20.15;;
72761;SDS011;60886;55.034;73.150;2022-12-18T05:43:49;28.80;;;10.80;;
72761;SDS011;60886;55.034;73.150;2022-12-18T05:46:16;28.90;;;11.30;;
72761;SDS011;60886;55.034;73.150;2022-12-18T05:48:43;29.05;;;9.82;;
72761;SDS011;60886;55.034;73.150;2022-12-18T05:51:13;27.55;;;9.05;;
72761;SDS011;60886;55.034;73.150;2022-12-18T05:53:47;20.83;;;7.03;;
72761;SDS011;60886;55.034;73.150;2022-12-18T05:56:16;24.90;;;7.73;;
72761;SDS011;60886;55.034;73.150;2022-12-18T05:58:52;18.67;;;7.35;;
72761;SDS011;60886;55.034;73.150;2022-12-18T06:01:21;30.35;;;8.40;;
72761;SDS011;60886;55.034;73.150;2022-12-18T06:03:50;22.48;;;8.30;;
72761;SDS011;60886;55.034;73.150;2022-12-18T06:06:21;20.63;;;8.00;;
72761;SDS011;60886;55.034;73.150;2022-12-18T06:08:50;25.23;;;7.23;;
72761;SDS011;60886;55.034;73.150;2022-12-18T06:11:18;26.45;;;9.00;;
72761;SDS011;60886;55.034;73.150;2022-12-18T06:13:46;24.40;;;7.80;;
72761;SDS011;60886;55.034;73.150;2022-12-18T06:16:16;30.55;;;8.18;;
72761;SDS011;60886;55.034;73.150;2022-12-18T06:18:42;21.08;;;6.63;;
72761;SDS011;60886;55.034;73.150;2022-12-18T06:21:22;21.33;;;6.30;;
72761;SDS011;60886;55.034;73.150;2022-12-18T06:23:49;18.67;;;6.35;;
72761;SDS011;60886;55.034;73.150;2022-12-18T06:26:16;16.52;;;5.80;;
72761;SDS011;60886;55.034;73.150;2022-12-18T06:28:43;17.95;;;6.25;;
72761;SDS011;60886;55.034;73.150;2022-12-18T06:31:09;23.33;;;9.65;;
72761;SDS011;60886;55.034;73.150;2022-12-18T06:33:37;21.47;;;7.63;;
72761;SDS011;60886;55.034;73.150;2022-12-18T06:36:08;21.50;;;7.28;;
72761;SDS011;60886;55.034;73.150;2022-12-18T06:38:38;17.70;;;7.28;;
72761;SDS011;60886;55.034;73.150;2022-12-18T06:41:16;19.23;;;6.40;;
72761;SDS011;60886;55.034;73.150;2022-12-18T06:43:44;20.40;;;7.70;;
72761;SDS011;60886;55.034;73.150;2022-12-18T06:46:11;19.20;;;6.97;;
72761;SDS011;60886;55.034;73.150;2022-12-18T06:48:38;18.88;;;6.32;;
72761;SDS011;60886;55.034;73.150;2022-12-18T06:51:04;19.45;;;7.25;;
72761;SDS011;60886;55.034;73.150;2022-12-18T06:53:36;19.80;;;6.97;;
72761;SDS011;60886;55.034;73.150;2022-12-18T06:56:13;19.30;;;6.68;;
72761;SDS011;60886;55.034;73.150;2022-12-18T06:58:40;20.87;;;6.60;;
72761;SDS011;60886;55.034;73.150;2022-12-18T07:01:14;20.52;;;7.60;;
72761;SDS011;60886;55.034;73.150;2022-12-18T07:03:45;26.55;;;8.23;;
72761;SDS011;60886;55.034;73.150;2022-12-18T07:06:23;41.83;;;13.23;;
72761;SDS011;60886;55.034;73.150;2022-12-18T07:08:51;31.10;;;10.20;;
72761;SDS011;60886;55.034;73.150;2022-12-18T07:11:19;28.43;;;8.80;;
72761;SDS011;60886;55.034;73.150;2022-12-18T07:13:47;31.98;;;8.88;;
72761;SDS011;60886;55.034;73.150;2022-12-18T07:16:18;26.13;;;7.80;;
72761;SDS011;60886;55.034;73.150;2022-12-18T07:18:48;20.60;;;7.00;;
72761;SDS011;60886;55.034;73.150;2022-12-18T07:21:20;21.33;;;7.45;;
72761;SDS011;60886;55.034;73.150;2022-12-18T07:23:47;21.30;;;6.80;;
72761;SDS011;60886;55.034;73.150;2022-12-18T07:26:25;24.13;;;6.88;;
72761;SDS011;60886;55.034;73.150;2022-12-18T07:28:54;25.83;;;8.57;;
72761;SDS011;60886;55.034;73.150;2022-12-18T07:31:22;23.92;;;7.78;;
72761;SDS011;60886;55.034;73.150;2022-12-18T07:33:52;29.60;;;8.00;;
72761;SDS011;60886;55.034;73.150;2022-12-18T07:36:19;24.33;;;7.77;;
72761;SDS011;60886;55.034;73.150;2022-12-18T07:38:50;25.00;;;7.32;;
72761;SDS011;60886;55.034;73.150;2022-12-18T07:41:18;19.15;;;7.25;;
72761;SDS011;60886;55.034;73.150;2022-12-18T07:43:44;22.98;;;7.18;;
72761;SDS011;60886;55.034;73.150;2022-12-18T07:46:11;19.60;;;6.70;;
72761;SDS011;60886;55.034;73.150;2022-12-18T07:48:43;19.77;;;6.93;;
72761;SDS011;60886;55.034;73.150;2022-12-18T07:51:21;16.17;;;6.32;;
72761;SDS011;60886;55.034;73.150;2022-12-18T07:53:47;19.85;;;7.15;;
72761;SDS011;60886;55.034;73.150;2022-12-18T07:56:15;20.42;;;7.32;;
72761;SDS011;60886;55.034;73.150;2022-12-18T07:58:47;20.65;;;7.45;;
72761;SDS011;60886;55.034;73.150;2022-12-18T08:01:24;17.00;;;7.00;;
72761;SDS011;60886;55.034;73.150;2022-12-18T08:03:51;21.65;;;8.00;;
72761;SDS011;60886;55.034;73.150;2022-12-18T08:06:17;17.70;;;6.20;;
72761;SDS011;60886;55.034;73.150;2022-12-18T08:08:54;20.33;;;7.35;;
72761;SDS011;60886;55.034;73.150;2022-12-18T08:11:22;17.33;;;6.30;;
72761;SDS011;60886;55.034;73.150;2022-12-18T08:13:50;18.27;;;7.10;;
72761;SDS011;60886;55.034;73.150;2022-12-18T08:16:17;21.73;;;6.68;;
72761;SDS011;60886;55.034;73.150;2022-12-18T08:18:44;21.25;;;7.00;;
72761;SDS011;60886;55.034;73.150;2022-12-18T08:21:12;27.80;;;8.23;;
72761;SDS011;60886;55.034;73.150;2022-12-18T08:23:40;25.08;;;8.88;;
72761;SDS011;60886;55.034;73.150;2022-12-18T08:26:07;21.87;;;7.03;;
72761;SDS011;60886;55.034;73.150;2022-12-18T08:28:42;25.08;;;9.63;;
72761;SDS011;60886;55.034;73.150;2022-12-18T08:31:11;19.30;;;8.02;;
72761;SDS011;60886;55.034;73.150;2022-12-18T08:33:38;20.85;;;8.50;;
72761;SDS011;60886;55.034;73.150;2022-12-18T08:36:16;19.02;;;7.55;;
72761;SDS011;60886;55.034;73.150;2022-12-18T08:38:42;27.23;;;7.30;;
72761;SDS011;60886;55.034;73.150;2022-12-18T08:41:10;24.58;;;7.97;;
72761;SDS011;60886;55.034;73.150;2022-12-18T08:43:37;20.58;;;7.38;;
72761;SDS011;60886;55.034;73.150;2022-12-18T08:46:23;22.65;;;7.22;;
72761;SDS011;60886;55.034;73.150;2022-12-18T08:48:54;17.90;;;6.82;;
72761;SDS011;60886;55.034;73.150;2022-12-18T08:51:25;21.10;;;6.60;;
72761;SDS011;60886;55.034;73.150;2022-12-18T08:54:03;19.90;;;7.25;;
72761;SDS011;60886;55.034;73.150;2022-12-18T08:56:31;19.48;;;7.57;;
72761;SDS011;60886;55.034;73.150;2022-12-18T08:58:57;24.48;;;8.40;;
72761;SDS011;60886;55.034;73.150;2022-12-18T09:01:24;22.58;;;7.85;;
72761;SDS011;60886;55.034;73.150;2022-12-18T09:03:51;22.93;;;7.50;;
72761;SDS011;60886;55.034;73.150;2022-12-18T09:06:18;21.80;;;7.45;;
72761;SDS011;60886;55.034;73.150;2022-12-18T09:08:46;26.05;;;7.97;;
72761;SDS011;60886;55.034;73.150;2022-12-18T09:11:14;24.25;;;8.40;;
72761;SDS011;60886;55.034;73.150;2022-12-18T09:13:44;22.85;;;7.88;;
72761;SDS011;60886;55.034;73.150;2022-12-18T09:16:10;27.40;;;8.63;;
72761;SDS011;60886;55.034;73.150;2022-12-18T09:18:39;25.98;;;9.40;;
72761;SDS011;60886;55.034;73.150;2022-12-18T09:21:15;24.95;;;8.75;;
72761;SDS011;60886;55.034;73.150;2022-12-18T09:23:49;23.77;;;7.85;;
72761;SDS011;60886;55.034;73.150;2022-12-18T09:26:21;20.00;;;7.15;;
72761;SDS011;60886;55.034;73.150;2022-12-18T09:28:49;26.07;;;9.17;;
72761;SDS011;60886;55.034;73.150;2022-12-18T09:31:19;24.38;;;9.88;;
72761;SDS011;60886;55.034;73.150;2022-12-18T09:33:47;27.50;;;9.75;;
72761;SDS011;60886;55.034;73.150;2022-12-18T09:36:15;26.05;;;9.07;;
72761;SDS011;60886;55.034;73.150;2022-12-18T09:38:45;23.55;;;8.55;;
72761;SDS011;60886;55.034;73.150;2022-12-18T09:50:19;24.65;;;9.05;;
72761;SDS011;60886;55.034;73.150;2022-12-18T09:52:56;31.55;;;9.50;;
72761;SDS011;60886;55.034;73.150;2022-12-18T09:55:36;28.93;;;9.07;;
72761;SDS011;60886;55.034;73.150;2022-12-18T10:00:53;25.23;;;9.45;;
72761;SDS011;60886;55.034;73.150;2022-12-18T10:03:20;26.42;;;11.07;;
72761;SDS011;60886;55.034;73.150;2022-12-18T10:08:22;32.70;;;10.93;;
72761;SDS011;60886;55.034;73.150;2022-12-18T10:11:20;32.75;;;10.30;;
72761;SDS011;60886;55.034;73.150;2022-12-18T10:14:02;27.85;;;9.77;;
72761;SDS011;60886;55.034;73.150;2022-12-18T10:26:55;30.77;;;11.73;;
72761;SDS011;60886;55.034;73.150;2022-12-18T10:29:36;32.40;;;11.98;;
72761;SDS011;60886;55.034;73.150;2022-12-18T10:32:03;33.05;;;12.88;;
72761;SDS011;60886;55.034;73.150;2022-12-18T10:34:31;40.63;;;13.77;;
72761;SDS011;60886;55.034;73.150;2022-12-18T10:36:59;36.95;;;13.32;;
72761;SDS011;60886;55.034;73.150;2022-12-18T10:39:33;34.53;;;11.98;;
72761;SDS011;60886;55.034;73.150;2022-12-18T10:42:16;30.55;;;11.88;;
72761;SDS011;60886;55.034;73.150;2022-12-18T10:45:00;35.55;;;12.32;;
72761;SDS011;60886;55.034;73.150;2022-12-18T10:47:29;33.37;;;12.77;;
72761;SDS011;60886;55.034;73.150;2022-12-18T10:49:55;34.00;;;12.52;;
72761;SDS011;60886;55.034;73.150;2022-12-18T10:52:24;33.67;;;11.52;;
72761;SDS011;60886;55.034;73.150;2022-12-18T10:54:52;39.53;;;12.07;;
72761;SDS011;60886;55.034;73.150;2022-12-18T10:57:34;39.78;;;13.55;;
72761;SDS011;60886;55.034;73.150;2022-12-18T11:00:22;46.40;;;15.80;;
72761;SDS011;60886;55.034;73.150;2022-12-18T11:02:51;49.85;;;17.00;;
72761;SDS011;60886;55.034;73.150;2022-12-18T11:05:36;43.03;;;17.25;;
72761;SDS011;60886;55.034;73.150;2022-12-18T11:08:11;38.47;;;15.85;;
72761;SDS011;60886;55.034;73.150;2022-12-18T11:10:49;47.22;;;18.17;;
72761;SDS011;60886;55.034;73.150;2022-12-18T11:13:18;49.73;;;18.37;;
72761;SDS011;60886;55.034;73.150;2022-12-18T11:15:46;39.50;;;14.32;;
72761;SDS011;60886;55.034;73.150;2022-12-18T11:18:19;35.33;;;12.75;;
72761;SDS011;60886;55.034;73.150;2022-12-18T11:21:06;37.80;;;13.20;;
72761;SDS011;60886;55.034;73.150;2022-12-18T11:23:36;40.13;;;12.38;;
72761;SDS011;60886;55.034;73.150;2022-12-18T11:26:11;33.77;;;12.97;;
72761;SDS011;60886;55.034;73.150;2022-12-18T11:31:27;31.70;;;11.75;;
72761;SDS011;60886;55.034;73.150;2022-12-18T11:33:56;37.35;;;12.57;;
72761;SDS011;60886;55.034;73.150;2022-12-18T11:36:34;39.58;;;14.48;;
72761;SDS011;60886;55.034;73.150;2022-12-18T11:39:12;34.53;;;13.67;;
72761;SDS011;60886;55.034;73.150;2022-12-18T11:45:04;39.38;;;15.27;;
72761;SDS011;60886;55.034;73.150;2022-12-18T11:50:31;28.67;;;12.07;;
72761;SDS011;60886;55.034;73.150;2022-12-18T11:53:18;32.53;;;11.97;;
72761;SDS011;60886;55.034;73.150;2022-12-18T11:55:55;30.25;;;11.65;;
72761;SDS011;60886;55.034;73.150;2022-12-18T12:03:59;28.17;;;10.48;;
72761;SDS011;60886;55.034;73.150;2022-12-18T12:15:27;28.80;;;10.13;;
72761;SDS011;60886;55.034;73.150;2022-12-18T12:23:47;24.20;;;10.88;;
72761;SDS011;60886;55.034;73.150;2022-12-18T12:26:27;38.47;;;13.98;;
72761;SDS011;60886;55.034;73.150;2022-12-18T12:29:09;41.53;;;12.90;;
72761;SDS011;60886;55.034;73.150;2022-12-18T12:40:07;46.20;;;16.65;;
72761;SDS011;60886;55.034;73.150;2022-12-18T12:43:03;38.45;;;15.90;;
72761;SDS011;60886;55.034;73.150;2022-12-18T12:48:16;54.87;;;17.83;;
72761;SDS011;60886;55.034;73.150;2022-12-18T12:50:51;63.17;;;20.95;;
72761;SDS011;60886;55.034;73.150;2022-12-18T12:53:26;55.60;;;20.45;;
72761;SDS011;60886;55.034;73.150;2022-12-18T12:55:59;46.15;;;18.05;;
72761;SDS011;60886;55.034;73.150;2022-12-18T12:58:33;47.63;;;17.83;;
72761;SDS011;60886;55.034;73.150;2022-12-18T13:20:38;30.60;;;11.55;;
72761;SDS011;60886;55.034;73.150;2022-12-18T13:34:15;26.70;;;9.73;;
72761;SDS011;60886;55.034;73.150;2022-12-18T13:36:51;28.40;;;9.65;;
72761;SDS011;60886;55.034;73.150;2022-12-18T13:41:54;28.40;;;10.63;;
72761;SDS011;60886;55.034;73.150;2022-12-18T13:45:40;26.38;;;10.35;;
72761;SDS011;60886;55.034;73.150;2022-12-18T13:48:15;27.08;;;10.45;;
72761;SDS011;60886;55.034;73.150;2022-12-18T13:50:52;26.65;;;10.27;;
72761;SDS011;60886;55.034;73.150;2022-12-18T13:53:42;28.65;;;11.27;;
72761;SDS011;60886;55.034;73.150;2022-12-18T13:56:29;35.20;;;12.53;;
72761;SDS011;60886;55.034;73.150;2022-12-18T13:59:14;33.88;;;12.82;;
72761;SDS011;60886;55.034;73.150;2022-12-18T14:01:44;32.35;;;11.43;;
72761;SDS011;60886;55.034;73.150;2022-12-18T14:07:07;30.13;;;10.77;;
72761;SDS011;60886;55.034;73.150;2022-12-18T14:09:46;30.63;;;10.63;;
72761;SDS011;60886;55.034;73.150;2022-12-18T14:12:19;24.95;;;8.55;;
72761;SDS011;60886;55.034;73.150;2022-12-18T14:15:19;30.70;;;10.07;;
72761;SDS011;60886;55.034;73.150;2022-12-18T14:18:01;30.85;;;10.20;;
72761;SDS011;60886;55.034;73.150;2022-12-18T14:20:39;31.40;;;10.73;;
72761;SDS011;60886;55.034;73.150;2022-12-18T14:23:42;28.33;;;10.50;;
72761;SDS011;60886;55.034;73.150;2022-12-18T14:26:26;28.13;;;9.55;;
72761;SDS011;60886;55.034;73.150;2022-12-18T14:28:58;30.08;;;9.95;;
72761;SDS011;60886;55.034;73.150;2022-12-18T14:31:38;27.90;;;10.05;;
72761;SDS011;60886;55.034;73.150;2022-12-18T14:34:08;31.50;;;10.48;;
72761;SDS011;60886;55.034;73.150;2022-12-18T14:36:41;39.27;;;13.67;;
72761;SDS011;60886;55.034;73.150;2022-12-18T14:39:24;34.20;;;11.90;;
72761;SDS011;60886;55.034;73.150;2022-12-18T14:41:51;33.72;;;12.77;;
72761;SDS011;60886;55.034;73.150;2022-12-18T14:44:18;36.47;;;12.30;;
72761;SDS011;60886;55.034;73.150;2022-12-18T14:46:51;36.80;;;13.55;;
72761;SDS011;60886;55.034;73.150;2022-12-18T14:51:55;44.30;;;13.25;;
72761;SDS011;60886;55.034;73.150;2022-12-18T14:54:30;31.45;;;11.70;;
72761;SDS011;60886;55.034;73.150;2022-12-18T14:57:02;35.08;;;11.88;;
72761;SDS011;60886;55.034;73.150;2022-12-18T14:59:31;39.13;;;12.43;;
72761;SDS011;60886;55.034;73.150;2022-12-18T15:07:49;36.40;;;13.05;;
72761;SDS011;60886;55.034;73.150;2022-12-18T15:10:19;36.65;;;12.70;;
72761;SDS011;60886;55.034;73.150;2022-12-18T15:18:10;42.30;;;12.32;;
72761;SDS011;60886;55.034;73.150;2022-12-18T15:26:02;40.63;;;12.32;;
72761;SDS011;60886;55.034;73.150;2022-12-18T15:36:27;33.35;;;10.82;;
72761;SDS011;60886;55.034;73.150;2022-12-18T15:39:09;26.20;;;10.02;;
72761;SDS011;60886;55.034;73.150;2022-12-18T15:41:37;31.43;;;11.70;;
72761;SDS011;60886;55.034;73.150;2022-12-18T15:44:21;32.15;;;10.93;;
72761;SDS011;60886;55.034;73.150;2022-12-18T15:46:48;32.10;;;11.23;;
72761;SDS011;60886;55.034;73.150;2022-12-18T15:49:15;34.53;;;11.80;;
72761;SDS011;60886;55.034;73.150;2022-12-18T15:51:43;30.25;;;11.55;;
72761;SDS011;60886;55.034;73.150;2022-12-18T15:54:28;31.10;;;11.53;;
72761;SDS011;60886;55.034;73.150;2022-12-18T15:57:24;31.40;;;12.13;;
72761;SDS011;60886;55.034;73.150;2022-12-18T15:59:50;33.10;;;11.02;;
72761;SDS011;60886;55.034;73.150;2022-12-18T16:02:20;27.85;;;10.05;;
72761;SDS011;60886;55.034;73.150;2022-12-18T16:04:49;25.33;;;9.85;;
72761;SDS011;60886;55.034;73.150;2022-12-18T16:07:16;29.07;;;10.40;;
72761;SDS011;60886;55.034;73.150;2022-12-18T16:09:53;28.30;;;10.55;;
72761;SDS011;60886;55.034;73.150;2022-12-18T16:12:21;28.42;;;10.90;;
72761;SDS011;60886;55.034;73.150;2022-12-18T16:14:51;31.60;;;9.93;;
72761;SDS011;60886;55.034;73.150;2022-12-18T16:17:18;31.02;;;11.00;;
72761;SDS011;60886;55.034;73.150;2022-12-18T16:19:44;33.30;;;13.00;;
72761;SDS011;60886;55.034;73.150;2022-12-18T16:22:15;34.25;;;12.55;;
72761;SDS011;60886;55.034;73.150;2022-12-18T16:24:45;31.50;;;12.10;;
72761;SDS011;60886;55.034;73.150;2022-12-18T16:27:13;31.20;;;11.40;;
72761;SDS011;60886;55.034;73.150;2022-12-18T16:29:49;31.25;;;11.23;;
72761;SDS011;60886;55.034;73.150;2022-12-18T16:32:18;27.93;;;10.27;;
72761;SDS011;60886;55.034;73.150;2022-12-18T16:34:45;29.20;;;10.43;;
72761;SDS011;60886;55.034;73.150;2022-12-18T16:37:13;27.85;;;11.20;;
72761;SDS011;60886;55.034;73.150;2022-12-18T16:39:40;27.42;;;10.05;;
72761;SDS011;60886;55.034;73.150;2022-12-18T16:42:15;29.67;;;10.27;;
72761;SDS011;60886;55.034;73.150;2022-12-18T16:44:44;28.20;;;9.73;;
72761;SDS011;60886;55.034;73.150;2022-12-18T16:47:12;26.92;;;10.40;;
72761;SDS011;60886;55.034;73.150;2022-12-18T16:49:44;28.48;;;10.45;;
72761;SDS011;60886;55.034;73.150;2022-12-18T16:52:13;42.03;;;12.27;;
72761;SDS011;60886;55.034;73.150;2022-12-18T16:54:39;32.22;;;13.10;;
72761;SDS011;60886;55.034;73.150;2022-12-18T16:57:08;36.70;;;12.90;;
72761;SDS011;60886;55.034;73.150;2022-12-18T16:59:37;35.40;;;13.70;;
72761;SDS011;60886;55.034;73.150;2022-12-18T17:02:04;39.22;;;14.65;;
72761;SDS011;60886;55.034;73.150;2022-12-18T17:04:40;38.00;;;13.25;;
72761;SDS011;60886;55.034;73.150;2022-12-18T17:07:07;36.45;;;13.10;;
72761;SDS011;60886;55.034;73.150;2022-12-18T17:09:34;33.80;;;11.57;;
72761;SDS011;60886;55.034;73.150;2022-12-18T17:12:00;38.47;;;13.85;;
72761;SDS011;60886;55.034;73.150;2022-12-18T17:14:27;36.95;;;14.13;;
72761;SDS011;60886;55.034;73.150;2022-12-18T17:16:54;47.00;;;15.45;;
72761;SDS011;60886;55.034;73.150;2022-12-18T17:19:23;34.97;;;12.95;;
72761;SDS011;60886;55.034;73.150;2022-12-18T17:21:55;36.33;;;13.10;;
72761;SDS011;60886;55.034;73.150;2022-12-18T17:24:21;33.15;;;11.93;;